createdAt,value
2023-05-23T00:03:22.971Z,70.60
2023-05-23T00:08:26.701Z,70.60
2023-05-23T00:13:34.848Z,70.50
2023-05-23T00:18:38.445Z,70.50
2023-05-23T00:23:42.327Z,70.40
2023-05-23T00:28:47.126Z,70.50
2023-05-23T00:33:50.659Z,70.50
2023-05-23T00:38:54.338Z,70.60
2023-05-23T00:43:59.834Z,70.60
2023-05-23T00:49:04.108Z,70.70
2023-05-23T00:54:08.362Z,70.80
2023-05-23T00:59:13.888Z,70.60
2023-05-23T01:04:17.673Z,71.40
2023-05-23T01:09:22.341Z,70.60
2023-05-23T01:14:39.545Z,70.70
2023-05-23T01:20:02.200Z,70.90
2023-05-23T01:25:25.284Z,71.10
2023-05-23T01:30:34.260Z,70.80
2023-05-23T01:35:39.062Z,70.80
2023-05-23T01:40:42.554Z,70.60
2023-05-23T01:45:49.156Z,70.50
2023-05-23T01:50:53.104Z,70.60
2023-05-23T01:55:57.377Z,70.80
2023-05-23T02:01:02.436Z,70.80
2023-05-23T02:06:07.508Z,70.80
2023-05-23T02:11:11.517Z,70.90
2023-05-23T02:16:18.058Z,70.80
2023-05-23T02:21:22.045Z,70.90
2023-05-23T02:26:27.628Z,71.00
2023-05-23T02:31:32.709Z,70.90
2023-05-23T02:36:37.082Z,70.80
2023-05-23T02:41:41.091Z,70.80
2023-05-23T02:46:46.086Z,70.90
2023-05-23T02:51:49.650Z,70.80
2023-05-23T02:56:54.851Z,70.90
2023-05-23T03:02:00.691Z,70.80
2023-05-23T03:07:07.130Z,70.80
2023-05-23T03:12:14.944Z,70.70
2023-05-23T03:17:20.216Z,70.90
2023-05-23T03:22:23.680Z,70.70
2023-05-23T03:27:27.028Z,70.80
2023-05-23T03:32:31.972Z,70.70
2023-05-23T03:37:35.353Z,70.70
2023-05-23T03:42:40.205Z,70.60
2023-05-23T03:47:46.970Z,70.50
2023-05-23T03:52:50.902Z,70.80
2023-05-23T03:57:54.461Z,70.80
2023-05-23T04:02:59.455Z,70.80
2023-05-23T04:08:03.142Z,70.90
2023-05-23T04:13:09.673Z,70.80
2023-05-23T04:18:17.410Z,70.80
2023-05-23T04:23:21.213Z,70.90
2023-05-23T04:28:28.732Z,70.70
2023-05-23T04:33:34.263Z,71.10
2023-05-23T04:38:41.101Z,70.90
2023-05-23T04:43:46.070Z,70.80
2023-05-23T04:49:04.086Z,70.80
2023-05-23T04:54:07.734Z,70.80
2023-05-23T04:59:11.503Z,71.00
2023-05-23T05:04:16.715Z,70.90
2023-05-23T05:09:22.137Z,71.20
2023-05-23T05:14:27.863Z,71.10
2023-05-23T05:19:33.108Z,71.30
2023-05-23T05:24:36.619Z,70.90
2023-05-23T05:29:40.113Z,70.80
2023-05-23T05:34:49.128Z,70.80
2023-05-23T05:39:54.842Z,70.90
2023-05-23T05:44:58.522Z,70.80
2023-05-23T05:50:03.674Z,70.90
2023-05-23T05:55:11.304Z,70.70
2023-05-23T06:00:19.373Z,70.80
2023-05-23T06:05:24.278Z,71.80
2023-05-23T06:10:28.008Z,70.90
2023-05-23T06:15:31.542Z,71.00
2023-05-23T06:20:36.416Z,71.60
2023-05-23T06:25:51.208Z,70.90
2023-05-23T06:30:54.652Z,71.00
2023-05-23T06:35:59.454Z,70.90
2023-05-23T06:41:03.863Z,71.00
2023-05-23T06:46:07.945Z,71.10
2023-05-23T06:51:12.761Z,71.10
2023-05-23T06:56:17.063Z,70.90
2023-05-23T07:01:32.635Z,70.70
2023-05-23T07:06:39.842Z,70.80
2023-05-23T07:11:44.572Z,70.90
2023-05-23T07:16:49.306Z,70.90
2023-05-23T07:21:54.970Z,71.00
2023-05-23T07:26:58.986Z,70.20
2023-05-23T07:32:03.581Z,68.20
2023-05-23T07:37:08.588Z,67.00
2023-05-23T07:42:18.640Z,66.50
2023-05-23T07:47:22.238Z,65.90
2023-05-23T07:52:27.113Z,65.90
2023-05-23T07:57:30.909Z,66.20
2023-05-23T08:02:34.566Z,66.30
2023-05-23T08:07:39.984Z,65.70
2023-05-23T08:12:43.698Z,65.30
2023-05-23T08:17:51.676Z,65.20
2023-05-23T08:22:58.356Z,64.10
2023-05-23T08:28:02.835Z,64.40
2023-05-23T08:33:27.857Z,63.80
2023-05-23T08:38:36.232Z,63.20
2023-05-23T08:43:48.032Z,63.40
2023-05-23T08:49:00.987Z,63.70
2023-05-23T08:54:09.298Z,63.80
2023-05-23T08:59:14.318Z,63.90
2023-05-23T09:04:19.368Z,63.50
2023-05-23T09:09:31.854Z,63.70
2023-05-23T09:14:38.308Z,63.40
2023-05-23T09:19:46.925Z,63.40
2023-05-23T09:25:00.319Z,63.30
2023-05-23T09:30:09.875Z,62.50
2023-05-23T09:35:14.547Z,61.40
2023-05-23T09:40:21.548Z,61.00
2023-05-23T09:45:32.999Z,58.70
2023-05-23T09:50:37.968Z,57.80
2023-05-23T09:55:42.984Z,56.90
2023-05-23T10:00:48.754Z,57.00
2023-05-23T10:05:58.279Z,57.10
2023-05-23T10:12:44.610Z,57.80
2023-05-23T10:18:17.231Z,58.20
2023-05-23T10:23:21.328Z,58.30
2023-05-23T10:28:27.312Z,58.00
2023-05-23T10:33:36.629Z,58.10
2023-05-23T10:38:48.942Z,57.60
2023-05-23T10:44:08.742Z,58.10
2023-05-23T10:49:12.978Z,58.20
2023-05-23T10:54:16.793Z,57.90
2023-05-23T10:59:29.037Z,58.30
2023-05-23T11:04:32.413Z,57.70
2023-05-23T11:09:36.125Z,57.30
2023-05-23T11:14:56.625Z,56.50
2023-05-23T11:20:06.750Z,56.50
2023-05-23T11:25:12.330Z,56.90
2023-05-23T11:30:18.853Z,57.90
2023-05-23T11:35:23.196Z,58.40
2023-05-23T11:40:30.198Z,59.30
2023-05-23T11:45:37.145Z,59.00
2023-05-23T11:50:49.413Z,59.20
2023-05-23T11:55:55.347Z,59.30
2023-05-23T12:01:05.108Z,59.40
2023-05-23T12:06:09.963Z,59.60
2023-05-23T12:11:15.337Z,59.80
2023-05-23T12:16:20.164Z,59.80
2023-05-23T12:21:27.721Z,60.00
2023-05-23T12:26:31.272Z,60.10
2023-05-23T12:31:36.081Z,60.20
2023-05-23T12:36:48.634Z,60.30
2023-05-23T12:41:53.172Z,60.40
2023-05-23T12:46:58.126Z,60.50
2023-05-23T12:52:01.610Z,60.70
2023-05-23T12:57:05.163Z,60.60
2023-05-23T13:02:10.134Z,60.90
2023-05-23T13:07:13.545Z,61.70
2023-05-23T13:12:17.038Z,61.00
2023-05-23T13:17:21.973Z,61.00
2023-05-23T13:22:25.841Z,61.00
2023-05-23T13:27:29.516Z,61.30
2023-05-23T13:32:34.301Z,61.30
2023-05-23T13:37:38.123Z,61.40
2023-05-23T13:42:41.748Z,61.40
2023-05-23T13:47:47.310Z,61.40
2023-05-23T13:52:51.073Z,61.50
2023-05-23T13:57:54.448Z,61.50
2023-05-23T14:02:59.183Z,61.50
2023-05-23T14:08:02.794Z,61.70
2023-05-23T14:13:07.696Z,61.70
2023-05-23T14:18:12.737Z,61.70
2023-05-23T14:23:16.323Z,61.90
2023-05-23T14:28:19.711Z,62.00
2023-05-23T14:33:24.690Z,61.40
2023-05-23T14:38:28.291Z,61.40
2023-05-23T14:43:31.677Z,61.60
2023-05-23T14:48:36.636Z,62.00
2023-05-23T14:53:40.037Z,62.70
2023-05-23T14:58:45.755Z,61.90
2023-05-23T15:03:50.633Z,61.60
2023-05-23T15:08:54.182Z,61.90
2023-05-23T15:13:57.615Z,61.60
2023-05-23T15:19:02.533Z,61.70
2023-05-23T15:24:08.549Z,61.30
2023-05-23T15:29:13.227Z,61.30
2023-05-23T15:34:18.176Z,61.20
2023-05-23T15:39:22.194Z,61.30
2023-05-23T15:44:25.618Z,61.30
2023-05-23T15:49:30.666Z,61.40
2023-05-23T15:54:34.056Z,61.60
2023-05-23T15:59:38.442Z,61.60
2023-05-23T16:04:43.415Z,61.70
2023-05-23T16:09:46.860Z,61.90
2023-05-23T16:14:50.488Z,61.90
2023-05-23T16:19:55.298Z,62.20
2023-05-23T16:25:01.696Z,62.00
2023-05-23T16:30:07.044Z,62.20
2023-05-23T16:35:12.177Z,62.20
2023-05-23T16:40:16.706Z,62.20
2023-05-23T16:45:21.285Z,62.00
2023-05-23T16:50:26.136Z,61.80
2023-05-23T16:55:30.338Z,61.80
2023-05-23T17:00:35.782Z,61.70
2023-05-23T17:05:40.846Z,61.80
2023-05-23T17:10:44.744Z,61.70
2023-05-23T17:15:48.199Z,62.00
2023-05-23T17:20:53.052Z,62.00
2023-05-23T17:25:58.786Z,62.00
2023-05-23T17:31:02.207Z,61.90
2023-05-23T17:36:07.571Z,61.50
2023-05-23T17:41:11.032Z,60.80
2023-05-23T17:46:14.447Z,59.60
2023-05-23T17:51:19.350Z,59.10
2023-05-23T17:56:24.862Z,58.60
2023-05-23T18:01:29.188Z,57.70
2023-05-23T18:06:33.997Z,56.10
2023-05-23T18:11:38.062Z,57.80
2023-05-23T18:16:41.854Z,57.30
2023-05-23T18:21:46.898Z,58.00
2023-05-23T18:26:50.405Z,58.20
2023-05-23T18:31:54.164Z,58.60
2023-05-23T18:36:58.991Z,58.20
2023-05-23T18:42:02.421Z,57.80
2023-05-23T18:47:06.460Z,57.40
2023-05-23T18:52:11.694Z,57.10
2023-05-23T18:57:17.356Z,57.30
2023-05-23T19:02:21.001Z,58.60
2023-05-23T19:07:25.913Z,58.90
2023-05-23T19:12:29.302Z,59.00
2023-05-23T19:17:32.899Z,58.90
2023-05-23T19:22:50.350Z,59.50
2023-05-23T19:27:54.763Z,59.60
2023-05-23T19:33:01.202Z,59.40
2023-05-23T19:38:06.061Z,59.70
2023-05-23T19:43:09.456Z,60.30
2023-05-23T19:48:12.901Z,59.80
2023-05-23T19:53:17.809Z,59.90
2023-05-23T19:58:21.646Z,60.10
2023-05-23T20:03:25.112Z,60.50
2023-05-23T20:08:29.908Z,60.70
2023-05-23T20:13:33.288Z,60.90
2023-05-23T20:18:36.715Z,61.20
2023-05-23T20:23:43.484Z,61.20
2023-05-23T20:28:47.103Z,61.60
2023-05-23T20:33:51.354Z,61.90
2023-05-23T20:38:56.151Z,62.00
2023-05-23T20:44:00.308Z,62.20
2023-05-23T20:49:04.416Z,62.50
2023-05-23T20:54:09.581Z,62.90
2023-05-23T20:59:13.189Z,63.50
2023-05-23T21:04:18.734Z,63.50
2023-05-23T21:09:23.731Z,63.60
2023-05-23T21:14:27.302Z,64.10
2023-05-23T21:19:31.030Z,63.80
2023-05-23T21:24:35.914Z,64.20
2023-05-23T21:29:39.281Z,64.50
2023-05-23T21:34:42.711Z,64.50
2023-05-23T21:39:51.973Z,64.70
2023-05-23T21:44:56.162Z,64.90
2023-05-23T21:49:59.697Z,65.10
2023-05-23T21:55:04.832Z,65.10
2023-05-23T22:00:12.968Z,65.10
2023-05-23T22:05:16.670Z,65.40
2023-05-23T22:10:21.535Z,65.30
2023-05-23T22:15:25.009Z,65.10
2023-05-23T22:20:29.747Z,65.00
2023-05-23T22:25:35.219Z,65.50
2023-05-23T22:30:38.620Z,65.50
2023-05-23T22:35:42.876Z,65.80
2023-05-23T22:40:47.844Z,65.60
2023-05-23T22:45:52.413Z,65.60
2023-05-23T22:50:57.154Z,65.60
2023-05-23T22:56:02.476Z,65.70
2023-05-23T23:01:06.339Z,65.50
2023-05-23T23:06:09.815Z,65.40
2023-05-23T23:11:14.606Z,65.50
2023-05-23T23:16:19.525Z,65.50
2023-05-23T23:21:23.163Z,65.70
2023-05-23T23:26:27.991Z,65.70
2023-05-23T23:31:31.560Z,65.50
2023-05-23T23:36:34.998Z,65.80
2023-05-23T23:41:39.763Z,65.70
2023-05-23T23:46:43.343Z,65.80
2023-05-23T23:51:46.868Z,65.70
2023-05-23T23:56:51.680Z,66.10
